sensor_id;sensor_type;location;lat;lon;timestamp;P1;durP1;ratioP1;P2;durP2;ratioP2
22223;SDS011;11281;52.194;21.006;2023-08-12T00:03:35;10.10;;;4.57;;
22223;SDS011;11281;52.194;21.006;2023-08-12T00:07:56;12.95;;;4.88;;
22223;SDS011;11281;52.194;21.006;2023-08-12T00:12:18;8.27;;;4.40;;
22223;SDS011;11281;52.194;21.006;2023-08-12T00:16:40;8.68;;;3.97;;
22223;SDS011;11281;52.194;21.006;2023-08-12T00:21:06;9.75;;;4.10;;
22223;SDS011;11281;52.194;21.006;2023-08-12T00:25:31;10.55;;;4.97;;
22223;SDS011;11281;52.194;21.006;2023-08-12T00:29:52;12.35;;;5.38;;
22223;SDS011;11281;52.194;21.006;2023-08-12T00:34:14;13.57;;;4.90;;
22223;SDS011;11281;52.194;21.006;2023-08-12T00:38:36;13.70;;;5.18;;
22223;SDS011;11281;52.194;21.006;2023-08-12T00:42:58;11.85;;;5.03;;
22223;SDS011;11281;52.194;21.006;2023-08-12T00:47:20;12.90;;;5.43;;
22223;SDS011;11281;52.194;21.006;2023-08-12T00:51:42;11.38;;;4.97;;
22223;SDS011;11281;52.194;21.006;2023-08-12T00:56:07;10.27;;;4.35;;
22223;SDS011;11281;52.194;21.006;2023-08-12T01:00:28;9.65;;;4.70;;
22223;SDS011;11281;52.194;21.006;2023-08-12T01:04:52;10.50;;;5.03;;
22223;SDS011;11281;52.194;21.006;2023-08-12T01:09:13;12.90;;;6.00;;
22223;SDS011;11281;52.194;21.006;2023-08-12T01:13:46;13.93;;;5.20;;
22223;SDS011;11281;52.194;21.006;2023-08-12T01:18:19;12.75;;;5.32;;
22223;SDS011;11281;52.194;21.006;2023-08-12T01:22:43;14.10;;;5.15;;
22223;SDS011;11281;52.194;21.006;2023-08-12T01:27:08;12.73;;;5.40;;
22223;SDS011;11281;52.194;21.006;2023-08-12T01:31:34;11.23;;;5.32;;
22223;SDS011;11281;52.194;21.006;2023-08-12T01:36:16;13.55;;;5.68;;
22223;SDS011;11281;52.194;21.006;2023-08-12T01:40:41;10.98;;;4.95;;
22223;SDS011;11281;52.194;21.006;2023-08-12T01:45:04;8.15;;;4.60;;
22223;SDS011;11281;52.194;21.006;2023-08-12T01:49:27;8.80;;;4.75;;
22223;SDS011;11281;52.194;21.006;2023-08-12T01:53:49;8.32;;;4.32;;
22223;SDS011;11281;52.194;21.006;2023-08-12T01:58:10;7.32;;;4.63;;
22223;SDS011;11281;52.194;21.006;2023-08-12T02:02:32;11.32;;;5.13;;
22223;SDS011;11281;52.194;21.006;2023-08-12T02:06:54;10.27;;;5.65;;
22223;SDS011;11281;52.194;21.006;2023-08-12T02:11:16;8.23;;;4.68;;
22223;SDS011;11281;52.194;21.006;2023-08-12T02:15:38;10.25;;;5.38;;
22223;SDS011;11281;52.194;21.006;2023-08-12T02:20:00;6.30;;;4.38;;
22223;SDS011;11281;52.194;21.006;2023-08-12T02:24:21;8.20;;;4.80;;
22223;SDS011;11281;52.194;21.006;2023-08-12T02:28:43;6.82;;;4.82;;
22223;SDS011;11281;52.194;21.006;2023-08-12T02:33:05;4.93;;;3.67;;
22223;SDS011;11281;52.194;21.006;2023-08-12T02:37:26;6.22;;;3.72;;
22223;SDS011;11281;52.194;21.006;2023-08-12T02:41:48;7.25;;;4.80;;
22223;SDS011;11281;52.194;21.006;2023-08-12T02:46:10;6.88;;;3.90;;
22223;SDS011;11281;52.194;21.006;2023-08-12T02:50:32;6.63;;;4.10;;
22223;SDS011;11281;52.194;21.006;2023-08-12T02:54:53;6.55;;;3.83;;
22223;SDS011;11281;52.194;21.006;2023-08-12T02:59:17;9.23;;;4.35;;
22223;SDS011;11281;52.194;21.006;2023-08-12T03:03:38;8.20;;;3.53;;
22223;SDS011;11281;52.194;21.006;2023-08-12T03:08:00;5.53;;;3.90;;
22223;SDS011;11281;52.194;21.006;2023-08-12T03:12:24;5.95;;;3.85;;
22223;SDS011;11281;52.194;21.006;2023-08-12T03:16:46;5.55;;;3.55;;
22223;SDS011;11281;52.194;21.006;2023-08-12T03:21:08;5.65;;;3.95;;
22223;SDS011;11281;52.194;21.006;2023-08-12T03:25:30;9.30;;;3.75;;
22223;SDS011;11281;52.194;21.006;2023-08-12T03:29:52;9.95;;;4.20;;
22223;SDS011;11281;52.194;21.006;2023-08-12T03:34:14;6.32;;;3.30;;
22223;SDS011;11281;52.194;21.006;2023-08-12T03:38:35;5.22;;;3.40;;
22223;SDS011;11281;52.194;21.006;2023-08-12T03:42:57;5.72;;;3.78;;
22223;SDS011;11281;52.194;21.006;2023-08-12T03:47:19;4.15;;;2.78;;
22223;SDS011;11281;52.194;21.006;2023-08-12T03:51:42;6.35;;;3.50;;
22223;SDS011;11281;52.194;21.006;2023-08-12T03:56:04;4.40;;;3.20;;
22223;SDS011;11281;52.194;21.006;2023-08-12T04:00:26;7.90;;;2.80;;
22223;SDS011;11281;52.194;21.006;2023-08-12T04:04:48;5.38;;;3.08;;
22223;SDS011;11281;52.194;21.006;2023-08-12T04:09:10;4.93;;;3.20;;
22223;SDS011;11281;52.194;21.006;2023-08-12T04:13:32;4.07;;;3.17;;
22223;SDS011;11281;52.194;21.006;2023-08-12T04:17:53;5.88;;;2.55;;
22223;SDS011;11281;52.194;21.006;2023-08-12T04:22:16;4.55;;;3.15;;
22223;SDS011;11281;52.194;21.006;2023-08-12T04:26:37;5.40;;;3.38;;
22223;SDS011;11281;52.194;21.006;2023-08-12T04:31:00;3.47;;;2.92;;
22223;SDS011;11281;52.194;21.006;2023-08-12T04:35:22;3.60;;;3.30;;
22223;SDS011;11281;52.194;21.006;2023-08-12T04:39:43;7.38;;;3.85;;
22223;SDS011;11281;52.194;21.006;2023-08-12T04:44:06;3.70;;;3.40;;
22223;SDS011;11281;52.194;21.006;2023-08-12T04:48:28;5.63;;;3.30;;
22223;SDS011;11281;52.194;21.006;2023-08-12T04:52:49;3.88;;;2.92;;
22223;SDS011;11281;52.194;21.006;2023-08-12T04:57:11;5.95;;;3.75;;
22223;SDS011;11281;52.194;21.006;2023-08-12T05:01:33;6.05;;;4.05;;
22223;SDS011;11281;52.194;21.006;2023-08-12T05:05:54;9.65;;;3.75;;
22223;SDS011;11281;52.194;21.006;2023-08-12T05:10:16;5.70;;;3.65;;
22223;SDS011;11281;52.194;21.006;2023-08-12T05:14:39;5.28;;;3.83;;
22223;SDS011;11281;52.194;21.006;2023-08-12T05:19:01;4.45;;;4.05;;
22223;SDS011;11281;52.194;21.006;2023-08-12T05:23:23;9.10;;;4.47;;
22223;SDS011;11281;52.194;21.006;2023-08-12T05:27:44;7.13;;;4.55;;
22223;SDS011;11281;52.194;21.006;2023-08-12T05:32:06;5.13;;;4.03;;
22223;SDS011;11281;52.194;21.006;2023-08-12T05:36:28;7.70;;;3.95;;
22223;SDS011;11281;52.194;21.006;2023-08-12T05:40:50;7.05;;;4.38;;
22223;SDS011;11281;52.194;21.006;2023-08-12T05:45:12;7.07;;;4.80;;
22223;SDS011;11281;52.194;21.006;2023-08-12T05:49:33;6.28;;;4.68;;
22223;SDS011;11281;52.194;21.006;2023-08-12T05:53:55;7.15;;;4.50;;
22223;SDS011;11281;52.194;21.006;2023-08-12T05:58:17;8.45;;;5.18;;
22223;SDS011;11281;52.194;21.006;2023-08-12T06:02:38;4.05;;;3.70;;
22223;SDS011;11281;52.194;21.006;2023-08-12T06:07:00;5.60;;;4.15;;
22223;SDS011;11281;52.194;21.006;2023-08-12T06:11:22;6.63;;;4.45;;
22223;SDS011;11281;52.194;21.006;2023-08-12T06:15:44;6.40;;;4.40;;
22223;SDS011;11281;52.194;21.006;2023-08-12T06:20:05;6.47;;;3.75;;
22223;SDS011;11281;52.194;21.006;2023-08-12T06:24:28;5.18;;;3.55;;
22223;SDS011;11281;52.194;21.006;2023-08-12T06:28:49;4.93;;;3.78;;
22223;SDS011;11281;52.194;21.006;2023-08-12T06:33:11;5.13;;;3.92;;
22223;SDS011;11281;52.194;21.006;2023-08-12T06:37:33;3.95;;;2.63;;
22223;SDS011;11281;52.194;21.006;2023-08-12T06:41:55;4.72;;;2.53;;
22223;SDS011;11281;52.194;21.006;2023-08-12T06:46:16;5.22;;;2.50;;
22223;SDS011;11281;52.194;21.006;2023-08-12T06:50:38;4.40;;;2.65;;
22223;SDS011;11281;52.194;21.006;2023-08-12T06:55:00;3.50;;;2.15;;
22223;SDS011;11281;52.194;21.006;2023-08-12T06:59:22;5.35;;;2.20;;
22223;SDS011;11281;52.194;21.006;2023-08-12T07:03:43;4.93;;;2.30;;
22223;SDS011;11281;52.194;21.006;2023-08-12T07:08:05;4.57;;;2.20;;
22223;SDS011;11281;52.194;21.006;2023-08-12T07:12:27;5.93;;;1.70;;
22223;SDS011;11281;52.194;21.006;2023-08-12T07:16:48;2.70;;;2.10;;
22223;SDS011;11281;52.194;21.006;2023-08-12T07:21:10;5.55;;;2.20;;
22223;SDS011;11281;52.194;21.006;2023-08-12T07:25:32;3.58;;;1.75;;
22223;SDS011;11281;52.194;21.006;2023-08-12T07:29:54;2.55;;;1.80;;
22223;SDS011;11281;52.194;21.006;2023-08-12T07:34:15;4.22;;;2.08;;
22223;SDS011;11281;52.194;21.006;2023-08-12T07:38:37;1.90;;;1.70;;
22223;SDS011;11281;52.194;21.006;2023-08-12T07:42:59;2.90;;;2.13;;
22223;SDS011;11281;52.194;21.006;2023-08-12T07:47:21;2.45;;;1.50;;
22223;SDS011;11281;52.194;21.006;2023-08-12T07:51:42;3.30;;;1.92;;
22223;SDS011;11281;52.194;21.006;2023-08-12T07:56:04;1.98;;;1.35;;
22223;SDS011;11281;52.194;21.006;2023-08-12T08:00:26;4.60;;;1.58;;
22223;SDS011;11281;52.194;21.006;2023-08-12T08:04:47;3.80;;;1.67;;
22223;SDS011;11281;52.194;21.006;2023-08-12T08:09:10;3.35;;;1.92;;
22223;SDS011;11281;52.194;21.006;2023-08-12T08:13:32;6.03;;;1.73;;
22223;SDS011;11281;52.194;21.006;2023-08-12T08:17:53;1.52;;;1.40;;
22223;SDS011;11281;52.194;21.006;2023-08-12T08:22:15;2.67;;;1.15;;
22223;SDS011;11281;52.194;21.006;2023-08-12T08:26:37;3.08;;;1.35;;
22223;SDS011;11281;52.194;21.006;2023-08-12T08:30:59;2.35;;;1.20;;
22223;SDS011;11281;52.194;21.006;2023-08-12T08:35:21;3.55;;;1.20;;
22223;SDS011;11281;52.194;21.006;2023-08-12T08:39:43;1.75;;;1.10;;
22223;SDS011;11281;52.194;21.006;2023-08-12T08:44:06;3.38;;;0.95;;
22223;SDS011;11281;52.194;21.006;2023-08-12T08:48:29;1.63;;;1.00;;
22223;SDS011;11281;52.194;21.006;2023-08-12T08:52:51;1.15;;;0.90;;
22223;SDS011;11281;52.194;21.006;2023-08-12T08:57:14;1.50;;;1.05;;
22223;SDS011;11281;52.194;21.006;2023-08-12T09:01:36;2.30;;;1.67;;
22223;SDS011;11281;52.194;21.006;2023-08-12T09:05:59;1.60;;;1.13;;
22223;SDS011;11281;52.194;21.006;2023-08-12T09:10:21;1.38;;;1.05;;
22223;SDS011;11281;52.194;21.006;2023-08-12T09:14:44;4.18;;;2.13;;
22223;SDS011;11281;52.194;21.006;2023-08-12T09:19:06;3.33;;;1.17;;
22223;SDS011;11281;52.194;21.006;2023-08-12T09:23:28;2.45;;;1.48;;
22223;SDS011;11281;52.194;21.006;2023-08-12T09:28:05;3.03;;;1.48;;
22223;SDS011;11281;52.194;21.006;2023-08-12T09:32:27;1.50;;;1.23;;
22223;SDS011;11281;52.194;21.006;2023-08-12T09:36:49;2.63;;;1.40;;
22223;SDS011;11281;52.194;21.006;2023-08-12T09:41:11;5.80;;;2.00;;
22223;SDS011;11281;52.194;21.006;2023-08-12T09:45:33;5.03;;;2.13;;
22223;SDS011;11281;52.194;21.006;2023-08-12T09:49:56;4.47;;;1.83;;
22223;SDS011;11281;52.194;21.006;2023-08-12T09:54:19;4.45;;;1.05;;
22223;SDS011;11281;52.194;21.006;2023-08-12T09:58:41;1.63;;;1.17;;
22223;SDS011;11281;52.194;21.006;2023-08-12T10:03:04;5.57;;;1.10;;
22223;SDS011;11281;52.194;21.006;2023-08-12T10:07:26;3.42;;;1.10;;
22223;SDS011;11281;52.194;21.006;2023-08-12T10:11:48;2.55;;;1.20;;
22223;SDS011;11281;52.194;21.006;2023-08-12T10:16:13;3.17;;;1.27;;
22223;SDS011;11281;52.194;21.006;2023-08-12T10:20:35;2.67;;;1.20;;
22223;SDS011;11281;52.194;21.006;2023-08-12T10:24:58;2.47;;;1.48;;
22223;SDS011;11281;52.194;21.006;2023-08-12T10:29:25;1.52;;;1.20;;
22223;SDS011;11281;52.194;21.006;2023-08-12T10:33:46;2.47;;;1.30;;
22223;SDS011;11281;52.194;21.006;2023-08-12T10:38:11;1.67;;;1.05;;
22223;SDS011;11281;52.194;21.006;2023-08-12T10:42:45;3.25;;;1.48;;
22223;SDS011;11281;52.194;21.006;2023-08-12T10:47:08;1.48;;;1.00;;
22223;SDS011;11281;52.194;21.006;2023-08-12T10:56:14;1.90;;;1.13;;
22223;SDS011;11281;52.194;21.006;2023-08-12T11:00:36;5.07;;;1.67;;
22223;SDS011;11281;52.194;21.006;2023-08-12T11:05:06;2.63;;;1.58;;
22223;SDS011;11281;52.194;21.006;2023-08-12T11:09:31;3.58;;;1.45;;
22223;SDS011;11281;52.194;21.006;2023-08-12T11:13:56;5.57;;;1.20;;
22223;SDS011;11281;52.194;21.006;2023-08-12T11:18:19;1.95;;;1.10;;
22223;SDS011;11281;52.194;21.006;2023-08-12T11:22:42;1.40;;;1.00;;
22223;SDS011;11281;52.194;21.006;2023-08-12T11:27:05;1.48;;;1.27;;
22223;SDS011;11281;52.194;21.006;2023-08-12T11:31:30;4.50;;;1.30;;
22223;SDS011;11281;52.194;21.006;2023-08-12T11:35:52;1.80;;;1.13;;
22223;SDS011;11281;52.194;21.006;2023-08-12T11:40:14;1.73;;;0.98;;
22223;SDS011;11281;52.194;21.006;2023-08-12T11:44:39;1.75;;;1.20;;
22223;SDS011;11281;52.194;21.006;2023-08-12T11:49:02;3.05;;;1.10;;
22223;SDS011;11281;52.194;21.006;2023-08-12T11:53:24;1.98;;;1.00;;
22223;SDS011;11281;52.194;21.006;2023-08-12T11:57:46;3.05;;;1.42;;
22223;SDS011;11281;52.194;21.006;2023-08-12T12:02:08;1.50;;;1.40;;
22223;SDS011;11281;52.194;21.006;2023-08-12T12:06:35;2.63;;;1.50;;
22223;SDS011;11281;52.194;21.006;2023-08-12T12:11:03;2.00;;;1.02;;
22223;SDS011;11281;52.194;21.006;2023-08-12T12:15:26;1.98;;;1.05;;
22223;SDS011;11281;52.194;21.006;2023-08-12T12:19:52;2.05;;;1.27;;
22223;SDS011;11281;52.194;21.006;2023-08-12T12:24:19;3.40;;;1.50;;
22223;SDS011;11281;52.194;21.006;2023-08-12T12:28:41;1.67;;;1.00;;
22223;SDS011;11281;52.194;21.006;2023-08-12T12:33:03;3.03;;;1.23;;
22223;SDS011;11281;52.194;21.006;2023-08-12T12:37:25;2.47;;;1.00;;
22223;SDS011;11281;52.194;21.006;2023-08-12T12:41:47;2.28;;;1.33;;
22223;SDS011;11281;52.194;21.006;2023-08-12T12:46:09;2.75;;;1.00;;
22223;SDS011;11281;52.194;21.006;2023-08-12T12:50:30;4.10;;;1.25;;
22223;SDS011;11281;52.194;21.006;2023-08-12T12:54:52;1.83;;;1.15;;
22223;SDS011;11281;52.194;21.006;2023-08-12T12:59:14;4.93;;;1.50;;
22223;SDS011;11281;52.194;21.006;2023-08-12T13:03:36;2.45;;;1.50;;
22223;SDS011;11281;52.194;21.006;2023-08-12T13:07:57;1.35;;;1.00;;
22223;SDS011;11281;52.194;21.006;2023-08-12T13:12:19;1.42;;;1.13;;
22223;SDS011;11281;52.194;21.006;2023-08-12T13:16:41;2.67;;;1.38;;
22223;SDS011;11281;52.194;21.006;2023-08-12T13:21:02;2.30;;;1.33;;
22223;SDS011;11281;52.194;21.006;2023-08-12T13:25:24;2.45;;;1.63;;
22223;SDS011;11281;52.194;21.006;2023-08-12T13:29:46;1.17;;;0.90;;
22223;SDS011;11281;52.194;21.006;2023-08-12T13:34:08;1.73;;;1.05;;
22223;SDS011;11281;52.194;21.006;2023-08-12T13:38:29;3.42;;;1.27;;
22223;SDS011;11281;52.194;21.006;2023-08-12T13:42:51;1.33;;;1.02;;
22223;SDS011;11281;52.194;21.006;2023-08-12T13:47:13;2.25;;;1.42;;
22223;SDS011;11281;52.194;21.006;2023-08-12T13:51:35;2.90;;;1.25;;
22223;SDS011;11281;52.194;21.006;2023-08-12T13:55:56;3.58;;;1.00;;
22223;SDS011;11281;52.194;21.006;2023-08-12T14:00:18;1.42;;;1.33;;
22223;SDS011;11281;52.194;21.006;2023-08-12T14:04:40;2.95;;;1.60;;
22223;SDS011;11281;52.194;21.006;2023-08-12T14:09:02;1.95;;;1.38;;
22223;SDS011;11281;52.194;21.006;2023-08-12T14:13:23;5.10;;;1.67;;
22223;SDS011;11281;52.194;21.006;2023-08-12T14:17:45;1.80;;;1.00;;
22223;SDS011;11281;52.194;21.006;2023-08-12T14:22:07;4.78;;;1.30;;
22223;SDS011;11281;52.194;21.006;2023-08-12T14:26:29;2.05;;;1.27;;
22223;SDS011;11281;52.194;21.006;2023-08-12T14:30:50;1.35;;;1.25;;
22223;SDS011;11281;52.194;21.006;2023-08-12T14:35:12;3.97;;;1.42;;
22223;SDS011;11281;52.194;21.006;2023-08-12T14:39:34;2.05;;;1.05;;
22223;SDS011;11281;52.194;21.006;2023-08-12T14:43:55;2.42;;;1.30;;
22223;SDS011;11281;52.194;21.006;2023-08-12T14:48:17;2.38;;;1.30;;
22223;SDS011;11281;52.194;21.006;2023-08-12T14:52:39;1.65;;;1.50;;
22223;SDS011;11281;52.194;21.006;2023-08-12T14:57:01;1.98;;;1.58;;
22223;SDS011;11281;52.194;21.006;2023-08-12T15:01:22;2.67;;;1.30;;
22223;SDS011;11281;52.194;21.006;2023-08-12T15:05:48;1.30;;;1.20;;
22223;SDS011;11281;52.194;21.006;2023-08-12T15:10:19;2.33;;;1.10;;
22223;SDS011;11281;52.194;21.006;2023-08-12T15:14:41;2.28;;;1.17;;
22223;SDS011;11281;52.194;21.006;2023-08-12T15:19:03;2.17;;;1.00;;
22223;SDS011;11281;52.194;21.006;2023-08-12T15:23:25;2.45;;;0.98;;
22223;SDS011;11281;52.194;21.006;2023-08-12T15:27:46;2.17;;;1.10;;
22223;SDS011;11281;52.194;21.006;2023-08-12T15:32:08;4.30;;;1.27;;
22223;SDS011;11281;52.194;21.006;2023-08-12T15:36:30;2.17;;;1.13;;
22223;SDS011;11281;52.194;21.006;2023-08-12T15:40:52;3.00;;;1.30;;
22223;SDS011;11281;52.194;21.006;2023-08-12T15:45:14;1.48;;;1.10;;
22223;SDS011;11281;52.194;21.006;2023-08-12T15:49:36;2.58;;;1.10;;
22223;SDS011;11281;52.194;21.006;2023-08-12T15:53:57;1.95;;;1.20;;
22223;SDS011;11281;52.194;21.006;2023-08-12T15:58:19;3.33;;;1.45;;
22223;SDS011;11281;52.194;21.006;2023-08-12T16:02:41;1.20;;;1.10;;
22223;SDS011;11281;52.194;21.006;2023-08-12T16:07:03;3.33;;;1.45;;
22223;SDS011;11281;52.194;21.006;2023-08-12T16:11:24;2.33;;;1.23;;
22223;SDS011;11281;52.194;21.006;2023-08-12T16:15:46;1.35;;;1.05;;
22223;SDS011;11281;52.194;21.006;2023-08-12T16:20:08;3.72;;;1.30;;
22223;SDS011;11281;52.194;21.006;2023-08-12T16:24:32;2.38;;;1.20;;
22223;SDS011;11281;52.194;21.006;2023-08-12T16:28:53;4.75;;;1.05;;
22223;SDS011;11281;52.194;21.006;2023-08-12T16:33:15;2.33;;;1.17;;
22223;SDS011;11281;52.194;21.006;2023-08-12T16:37:37;2.97;;;1.52;;
22223;SDS011;11281;52.194;21.006;2023-08-12T16:41:59;3.88;;;1.60;;
22223;SDS011;11281;52.194;21.006;2023-08-12T16:46:20;7.53;;;2.15;;
22223;SDS011;11281;52.194;21.006;2023-08-12T16:50:43;4.72;;;1.83;;
22223;SDS011;11281;52.194;21.006;2023-08-12T16:55:05;2.08;;;1.52;;
22223;SDS011;11281;52.194;21.006;2023-08-12T16:59:27;6.53;;;1.83;;
22223;SDS011;11281;52.194;21.006;2023-08-12T17:03:49;2.42;;;1.40;;
22223;SDS011;11281;52.194;21.006;2023-08-12T17:08:11;2.40;;;1.52;;
22223;SDS011;11281;52.194;21.006;2023-08-12T17:12:33;6.72;;;1.77;;
22223;SDS011;11281;52.194;21.006;2023-08-12T17:16:54;4.93;;;2.13;;
22223;SDS011;11281;52.194;21.006;2023-08-12T17:21:16;3.13;;;2.28;;
22223;SDS011;11281;52.194;21.006;2023-08-12T17:25:38;8.85;;;2.40;;
22223;SDS011;11281;52.194;21.006;2023-08-12T17:30:00;12.02;;;3.60;;
22223;SDS011;11281;52.194;21.006;2023-08-12T17:34:22;8.48;;;3.10;;
22223;SDS011;11281;52.194;21.006;2023-08-12T17:38:44;5.20;;;3.00;;
22223;SDS011;11281;52.194;21.006;2023-08-12T17:43:05;8.18;;;3.30;;
22223;SDS011;11281;52.194;21.006;2023-08-12T17:47:27;10.45;;;3.60;;
22223;SDS011;11281;52.194;21.006;2023-08-12T17:51:49;14.68;;;6.22;;
22223;SDS011;11281;52.194;21.006;2023-08-12T17:56:11;63.85;;;30.63;;
22223;SDS011;11281;52.194;21.006;2023-08-12T18:00:35;97.35;;;46.92;;
22223;SDS011;11281;52.194;21.006;2023-08-12T18:04:57;59.35;;;34.10;;
22223;SDS011;11281;52.194;21.006;2023-08-12T18:09:18;38.88;;;22.95;;
22223;SDS011;11281;52.194;21.006;2023-08-12T18:13:40;23.92;;;10.07;;
22223;SDS011;11281;52.194;21.006;2023-08-12T18:18:02;12.52;;;7.65;;
22223;SDS011;11281;52.194;21.006;2023-08-12T18:22:24;13.18;;;5.00;;
22223;SDS011;11281;52.194;21.006;2023-08-12T18:26:45;9.93;;;4.63;;
22223;SDS011;11281;52.194;21.006;2023-08-12T18:31:07;5.30;;;3.50;;
22223;SDS011;11281;52.194;21.006;2023-08-12T18:35:29;5.93;;;3.90;;
22223;SDS011;11281;52.194;21.006;2023-08-12T18:39:51;10.43;;;4.05;;
22223;SDS011;11281;52.194;21.006;2023-08-12T18:44:12;21.33;;;5.28;;
22223;SDS011;11281;52.194;21.006;2023-08-12T18:48:34;16.08;;;5.78;;
22223;SDS011;11281;52.194;21.006;2023-08-12T18:52:56;22.17;;;6.30;;
22223;SDS011;11281;52.194;21.006;2023-08-12T18:57:18;28.55;;;8.40;;
22223;SDS011;11281;52.194;21.006;2023-08-12T19:01:39;22.77;;;7.78;;
22223;SDS011;11281;52.194;21.006;2023-08-12T19:06:01;12.60;;;6.20;;
22223;SDS011;11281;52.194;21.006;2023-08-12T19:10:23;14.52;;;5.88;;
22223;SDS011;11281;52.194;21.006;2023-08-12T19:14:45;16.58;;;6.47;;
22223;SDS011;11281;52.194;21.006;2023-08-12T19:19:07;13.18;;;5.75;;
22223;SDS011;11281;52.194;21.006;2023-08-12T19:23:29;9.20;;;5.47;;
22223;SDS011;11281;52.194;21.006;2023-08-12T19:27:50;7.40;;;4.55;;
22223;SDS011;11281;52.194;21.006;2023-08-12T19:32:12;7.72;;;4.10;;
22223;SDS011;11281;52.194;21.006;2023-08-12T19:36:34;11.40;;;4.32;;
22223;SDS011;11281;52.194;21.006;2023-08-12T19:40:56;9.90;;;4.85;;
22223;SDS011;11281;52.194;21.006;2023-08-12T19:45:18;6.50;;;4.20;;
22223;SDS011;11281;52.194;21.006;2023-08-12T19:49:40;12.00;;;4.28;;
22223;SDS011;11281;52.194;21.006;2023-08-12T19:54:02;10.30;;;4.88;;
22223;SDS011;11281;52.194;21.006;2023-08-12T19:58:24;5.88;;;4.07;;
22223;SDS011;11281;52.194;21.006;2023-08-12T20:02:46;7.45;;;3.75;;
22223;SDS011;11281;52.194;21.006;2023-08-12T20:07:08;8.77;;;3.72;;
22223;SDS011;11281;52.194;21.006;2023-08-12T20:11:29;7.50;;;3.72;;
22223;SDS011;11281;52.194;21.006;2023-08-12T20:15:51;7.93;;;4.13;;
22223;SDS011;11281;52.194;21.006;2023-08-12T20:20:18;8.93;;;4.20;;
22223;SDS011;11281;52.194;21.006;2023-08-12T20:24:40;8.43;;;4.18;;
22223;SDS011;11281;52.194;21.006;2023-08-12T20:29:02;8.38;;;4.35;;
22223;SDS011;11281;52.194;21.006;2023-08-12T20:33:24;10.35;;;4.55;;
22223;SDS011;11281;52.194;21.006;2023-08-12T20:37:45;7.38;;;4.15;;
22223;SDS011;11281;52.194;21.006;2023-08-12T20:42:07;5.80;;;3.88;;
22223;SDS011;11281;52.194;21.006;2023-08-12T20:46:29;7.28;;;4.75;;
22223;SDS011;11281;52.194;21.006;2023-08-12T20:50:50;9.57;;;4.40;;
22223;SDS011;11281;52.194;21.006;2023-08-12T20:55:12;7.32;;;3.80;;
22223;SDS011;11281;52.194;21.006;2023-08-12T20:59:34;11.50;;;3.97;;
22223;SDS011;11281;52.194;21.006;2023-08-12T21:03:56;8.57;;;4.43;;
22223;SDS011;11281;52.194;21.006;2023-08-12T21:08:17;6.47;;;3.63;;
22223;SDS011;11281;52.194;21.006;2023-08-12T21:12:39;9.07;;;4.43;;
22223;SDS011;11281;52.194;21.006;2023-08-12T21:17:01;6.05;;;3.60;;
22223;SDS011;11281;52.194;21.006;2023-08-12T21:21:23;6.22;;;3.83;;
22223;SDS011;11281;52.194;21.006;2023-08-12T21:25:44;7.45;;;3.75;;
22223;SDS011;11281;52.194;21.006;2023-08-12T21:30:07;7.00;;;4.28;;
22223;SDS011;11281;52.194;21.006;2023-08-12T21:34:29;8.98;;;4.13;;
22223;SDS011;11281;52.194;21.006;2023-08-12T21:38:51;8.93;;;4.80;;
22223;SDS011;11281;52.194;21.006;2023-08-12T21:43:13;9.73;;;4.88;;
22223;SDS011;11281;52.194;21.006;2023-08-12T21:47:35;9.15;;;4.38;;
22223;SDS011;11281;52.194;21.006;2023-08-12T21:51:56;10.20;;;5.30;;
22223;SDS011;11281;52.194;21.006;2023-08-12T21:56:18;7.78;;;4.47;;
22223;SDS011;11281;52.194;21.006;2023-08-12T22:00:40;8.23;;;4.75;;
22223;SDS011;11281;52.194;21.006;2023-08-12T22:05:02;6.45;;;4.45;;
22223;SDS011;11281;52.194;21.006;2023-08-12T22:09:23;6.68;;;4.32;;
22223;SDS011;11281;52.194;21.006;2023-08-12T22:13:49;8.27;;;4.82;;
22223;SDS011;11281;52.194;21.006;2023-08-12T22:18:11;8.55;;;5.18;;
22223;SDS011;11281;52.194;21.006;2023-08-12T22:22:32;8.73;;;5.45;;
22223;SDS011;11281;52.194;21.006;2023-08-12T22:26:54;9.00;;;6.28;;
22223;SDS011;11281;52.194;21.006;2023-08-12T22:31:16;10.10;;;6.65;;
22223;SDS011;11281;52.194;21.006;2023-08-12T22:35:37;12.88;;;5.65;;
22223;SDS011;11281;52.194;21.006;2023-08-12T22:39:59;8.10;;;6.28;;
22223;SDS011;11281;52.194;21.006;2023-08-12T22:44:21;11.05;;;6.63;;
22223;SDS011;11281;52.194;21.006;2023-08-12T22:48:43;10.93;;;6.00;;
22223;SDS011;11281;52.194;21.006;2023-08-12T22:53:04;9.10;;;6.47;;
22223;SDS011;11281;52.194;21.006;2023-08-12T22:57:26;12.13;;;7.55;;
22223;SDS011;11281;52.194;21.006;2023-08-12T23:01:48;15.40;;;9.32;;
22223;SDS011;11281;52.194;21.006;2023-08-12T23:06:10;12.88;;;7.70;;
22223;SDS011;11281;52.194;21.006;2023-08-12T23:10:31;14.98;;;8.93;;
22223;SDS011;11281;52.194;21.006;2023-08-12T23:14:53;15.30;;;8.90;;
22223;SDS011;11281;52.194;21.006;2023-08-12T23:19:15;19.20;;;8.88;;
22223;SDS011;11281;52.194;21.006;2023-08-12T23:23:37;13.65;;;9.15;;
22223;SDS011;11281;52.194;21.006;2023-08-12T23:27:59;13.85;;;8.40;;
22223;SDS011;11281;52.194;21.006;2023-08-12T23:32:21;16.45;;;9.20;;
22223;SDS011;11281;52.194;21.006;2023-08-12T23:36:43;11.40;;;8.23;;
22223;SDS011;11281;52.194;21.006;2023-08-12T23:41:05;13.98;;;8.13;;
22223;SDS011;11281;52.194;21.006;2023-08-12T23:45:26;14.27;;;9.02;;
22223;SDS011;11281;52.194;21.006;2023-08-12T23:49:48;13.13;;;8.32;;
22223;SDS011;11281;52.194;21.006;2023-08-12T23:54:10;13.60;;;8.40;;
22223;SDS011;11281;52.194;21.006;2023-08-12T23:58:32;14.55;;;7.75;;
